Time;durP1;ratioP1;P1;durP2;ratioP2;P2;SDS_P1;SDS_P2;PMS_P1;PMS_P2;Temp;Humidity;BMP_temperature;BMP_pressure;BME280_temperature;BME280_humidity;BME280_pressure;Samples;Min_cycle;Max_cycle;Signal;HPM_P1;HPM_P2
2023/04/28 00:01:27;;;;;;;13.67;8.53;;;;;;;9.19;100.00;93765.25;4801011;29;20057;-62
2023/04/28 00:03:54;;;;;;;12.35;7.07;;;;;;;9.22;100.00;93766.41;4800955;29;20078;-63
2023/04/28 00:06:21;;;;;;;9.80;6.20;;;;;;;9.24;100.00;93761.31;4802170;29;20184;-63
2023/04/28 00:08:48;;;;;;;9.63;5.78;;;;;;;9.01;100.00;93762.72;4804953;29;20409;-62
2023/04/28 00:11:14;;;;;;;11.60;5.97;;;;;;;8.98;100.00;93775.28;4804327;29;20124;-63
2023/04/28 00:13:41;;;;;;;9.40;5.50;;;;;;;9.06;100.00;93764.25;4804468;29;20115;-63
2023/04/28 00:16:07;;;;;;;12.00;5.53;;;;;;;8.68;100.00;93762.31;4804719;29;20128;-65
2023/04/28 00:18:34;;;;;;;10.82;5.90;;;;;;;8.83;100.00;93768.41;4803441;29;21584;-64
2023/04/28 00:21:01;;;;;;;10.18;5.70;;;;;;;8.92;100.00;93765.97;4804608;29;20394;-66
2023/04/28 00:23:28;;;;;;;12.32;6.50;;;;;;;8.87;100.00;93762.91;4787971;29;20070;-63
2023/04/28 00:25:56;;;;;;;10.53;6.07;;;;;;;8.92;100.00;93760.50;4804325;29;20043;-63
2023/04/28 00:28:22;;;;;;;10.35;5.78;;;;;;;8.97;100.00;93756.53;4803664;29;20050;-62
2023/04/28 00:30:59;;;;;;;9.75;5.45;;;;;;;8.83;100.00;93751.22;4802630;29;20498;-62
2023/04/28 00:33:26;;;;;;;9.70;5.90;;;;;;;8.86;100.00;93759.38;4803745;29;20055;-63
2023/04/28 00:35:59;;;;;;;10.10;5.90;;;;;;;8.94;100.00;93749.91;4804306;29;20054;-62
2023/04/28 00:38:26;;;;;;;8.63;5.40;;;;;;;9.04;100.00;93742.00;4803569;29;20427;-62
2023/04/28 00:40:53;;;;;;;11.50;5.75;;;;;;;9.01;100.00;93746.31;4788038;29;20050;-63
2023/04/28 00:43:20;;;;;;;12.02;6.85;;;;;;;9.07;100.00;93744.66;4803835;29;20058;-62
2023/04/28 00:45:50;;;;;;;12.15;6.95;;;;;;;9.10;100.00;93748.56;4804015;29;20417;-66
2023/04/28 00:48:17;;;;;;;9.85;6.03;;;;;;;9.16;100.00;93746.94;4793597;29;20051;-62
2023/04/28 00:50:46;;;;;;;9.30;5.80;;;;;;;9.07;100.00;93744.66;4804212;29;20047;-63
2023/04/28 00:53:13;;;;;;;9.13;5.40;;;;;;;9.16;100.00;93741.44;4803268;29;20046;-64
2023/04/28 00:55:40;;;;;;;12.07;6.15;;;;;;;9.21;100.00;93727.28;4804185;29;20053;-66
2023/04/28 00:58:07;;;;;;;11.18;5.90;;;;;;;9.00;100.00;93723.66;4803596;29;20408;-64
2023/04/28 01:00:34;;;;;;;10.73;5.97;;;;;;;8.97;100.00;93723.69;4787019;29;20103;-62
2023/04/28 01:03:01;;;;;;;9.23;5.33;;;;;;;9.00;100.00;93725.59;4803611;29;20054;-62
2023/04/28 01:05:29;;;;;;;9.95;5.75;;;;;;;8.89;100.00;93722.22;4803434;29;20121;-63
2023/04/28 01:07:56;;;;;;;9.35;5.93;;;;;;;8.84;100.00;93722.69;4803963;29;20054;-63
2023/04/28 01:10:22;;;;;;;9.25;5.60;;;;;;;8.74;100.00;93716.91;4803331;29;20115;-66
2023/04/28 01:12:49;;;;;;;11.05;6.38;;;;;;;8.93;100.00;93712.00;4803738;29;20050;-65
2023/04/28 01:15:17;;;;;;;9.27;5.97;;;;;;;8.99;100.00;93710.34;4772083;29;20049;-63
2023/04/28 01:17:46;;;;;;;9.65;6.22;;;;;;;9.01;100.00;93708.00;4803110;29;20047;-63
2023/04/28 01:20:13;;;;;;;11.32;7.22;;;;;;;8.92;100.00;93705.75;4802840;29;20047;-62
2023/04/28 01:22:40;;;;;;;10.48;6.45;;;;;;;9.01;100.00;93699.78;4787387;29;20047;-63
2023/04/28 01:25:07;;;;;;;13.00;6.70;;;;;;;8.88;100.00;93699.56;4803608;29;20082;-63
2023/04/28 01:27:34;;;;;;;10.57;5.93;;;;;;;8.98;100.00;93698.66;4802682;29;20054;-65
2023/04/28 01:30:00;;;;;;;10.80;6.47;;;;;;;9.10;100.00;93711.00;4803352;29;20050;-65
2023/04/28 01:32:27;;;;;;;13.57;6.50;;;;;;;9.10;100.00;93704.78;4772208;29;20053;-63
2023/04/28 01:34:54;;;;;;;10.48;6.15;;;;;;;8.91;100.00;93704.19;4803360;29;20081;-62
2023/04/28 01:37:21;;;;;;;9.75;6.18;;;;;;;8.78;100.00;93703.97;4786635;29;20055;-63
2023/04/28 01:39:47;;;;;;;9.40;5.90;;;;;;;8.70;100.00;93715.41;4803194;29;20051;-63
2023/04/28 01:42:14;;;;;;;9.52;6.05;;;;;;;8.70;100.00;93707.97;4802297;29;20380;-66
2023/04/28 01:44:56;;;;;;;9.63;6.03;;;;;;;8.72;100.00;93713.03;4789194;29;20407;-62
2023/04/28 01:47:23;;;;;;;9.60;6.10;;;;;;;8.84;100.00;93719.94;4802527;29;20074;-64
2023/04/28 01:49:49;;;;;;;11.35;5.97;;;;;;;8.86;100.00;93712.88;4803077;29;20050;-63
2023/04/28 01:52:18;;;;;;;9.80;6.07;;;;;;;8.79;100.00;93716.47;4802666;29;20043;-65
2023/04/28 01:55:04;;;;;;;10.00;6.00;;;;;;;8.99;100.00;93704.88;4787076;29;20138;-64
2023/04/28 01:57:32;;;;;;;9.65;6.13;;;;;;;9.05;100.00;93708.72;4802339;29;20875;-65
2023/04/28 01:59:59;;;;;;;10.20;5.55;;;;;;;9.04;100.00;93712.66;4803093;29;20059;-63
2023/04/28 02:02:26;;;;;;;8.38;5.65;;;;;;;9.17;100.00;93718.34;4802210;29;20095;-62
2023/04/28 02:04:52;;;;;;;8.83;5.23;;;;;;;9.22;100.00;93717.91;4771967;29;20049;-63
2023/04/28 02:07:19;;;;;;;9.90;5.50;;;;;;;9.26;100.00;93709.66;4802000;29;20070;-63
2023/04/28 02:09:46;;;;;;;9.02;5.90;;;;;;;9.12;100.00;93711.38;4802777;29;20051;-65
2023/04/28 02:12:13;;;;;;;9.10;5.85;;;;;;;9.03;100.00;93722.03;4802144;29;20054;-63
2023/04/28 02:14:40;;;;;;;10.90;6.57;;;;;;;8.96;100.00;93728.38;4802680;29;20043;-62
2023/04/28 02:17:06;;;;;;;10.53;6.63;;;;;;;8.66;100.00;93722.88;4802504;29;20047;-62
2023/04/28 02:19:33;;;;;;;11.40;6.32;;;;;;;8.57;100.00;93735.09;4800643;29;20043;-64
2023/04/28 02:22:00;;;;;;;12.68;6.57;;;;;;;8.65;100.00;93737.72;4802278;29;20055;-62
2023/04/28 02:24:26;;;;;;;11.88;6.95;;;;;;;8.69;100.00;93735.72;4802112;29;20043;-65
2023/04/28 02:26:53;;;;;;;12.23;6.60;;;;;;;8.70;100.00;93743.53;4802678;29;20358;-64
2023/04/28 02:29:20;;;;;;;11.27;6.77;;;;;;;8.68;100.00;93745.91;4800979;29;20050;-62
2023/04/28 02:31:47;;;;;;;10.25;6.28;;;;;;;8.77;100.00;93746.22;4802740;29;20450;-63
2023/04/28 02:34:13;;;;;;;11.13;5.95;;;;;;;8.83;100.00;93740.28;4785826;29;20050;-65
2023/04/28 02:36:40;;;;;;;9.32;6.22;;;;;;;8.70;100.00;93743.53;4786403;29;20389;-62
2023/04/28 02:39:07;;;;;;;19.15;11.32;;;;;;;8.69;100.00;93747.47;4802286;29;20508;-65
2023/04/28 02:41:34;;;;;;;10.97;6.90;;;;;;;8.60;100.00;93750.66;4785514;29;20857;-62
2023/04/28 02:44:00;;;;;;;11.10;6.30;;;;;;;8.52;100.00;93751.94;4786159;29;20046;-62
2023/04/28 02:46:27;;;;;;;11.15;6.20;;;;;;;8.39;100.00;93748.13;4782544;29;20043;-62
2023/04/28 02:48:54;;;;;;;12.65;6.38;;;;;;;8.32;100.00;93743.50;4795387;29;20088;-65
2023/04/28 02:51:20;;;;;;;10.52;6.38;;;;;;;8.38;100.00;93741.09;4801710;29;20057;-63
2023/04/28 02:53:47;;;;;;;10.77;6.90;;;;;;;8.46;100.00;93747.31;4802201;29;20051;-62
2023/04/28 02:56:14;;;;;;;10.15;6.50;;;;;;;8.33;100.00;93747.00;4801337;29;20055;-63
2023/04/28 02:58:41;;;;;;;15.20;8.27;;;;;;;8.29;100.00;93744.31;4801927;29;20051;-65
2023/04/28 03:01:07;;;;;;;13.40;7.40;;;;;;;8.34;100.00;93748.56;4801926;29;20143;-63
2023/04/28 03:03:34;;;;;;;12.20;6.85;;;;;;;8.43;100.00;93751.66;4801262;29;20851;-64
2023/04/28 03:06:01;;;;;;;10.93;6.63;;;;;;;8.50;100.00;93750.78;4802016;29;20047;-65
2023/04/28 03:08:27;;;;;;;12.05;6.60;;;;;;;8.60;100.00;93752.63;4801248;29;20061;-62
2023/04/28 03:10:54;;;;;;;9.82;6.18;;;;;;;8.63;100.00;93745.56;4801880;29;20059;-63
2023/04/28 03:13:21;;;;;;;11.27;6.63;;;;;;;8.69;100.00;93738.47;4801261;29;20165;-63
2023/04/28 03:15:47;;;;;;;10.70;6.53;;;;;;;8.69;100.00;93731.06;4801831;29;20146;-65
2023/04/28 03:18:16;;;;;;;9.37;6.13;;;;;;;8.69;100.00;93735.72;4801112;29;20509;-66
2023/04/28 03:20:43;;;;;;;10.25;6.15;;;;;;;8.71;100.00;93728.69;4799595;29;20428;-65
2023/04/28 03:23:10;;;;;;;10.23;6.07;;;;;;;8.69;100.00;93730.25;4767362;30;20162;-60
2023/04/28 03:25:36;;;;;;;10.57;6.50;;;;;;;8.68;100.00;93715.81;4797951;29;20472;-62
2023/04/28 03:28:03;;;;;;;11.18;6.50;;;;;;;8.71;100.00;93725.16;4785420;29;20690;-64
2023/04/28 03:30:31;;;;;;;10.93;6.60;;;;;;;8.75;100.00;93721.22;4801010;29;20043;-66
2023/04/28 03:32:57;;;;;;;12.93;7.35;;;;;;;8.89;100.00;93733.16;4801573;29;20062;-63
2023/04/28 03:35:24;;;;;;;11.77;7.03;;;;;;;8.90;100.00;93724.56;4800979;29;20077;-66
2023/04/28 03:37:51;;;;;;;10.85;6.88;;;;;;;8.87;100.00;93724.59;4801325;29;20050;-62
2023/04/28 03:40:18;;;;;;;13.10;7.80;;;;;;;8.74;100.00;93722.38;4800747;29;20394;-62
2023/04/28 03:42:44;;;;;;;14.27;8.30;;;;;;;8.62;100.00;93725.66;4801300;29;20047;-65
2023/04/28 03:45:11;;;;;;;12.90;7.82;;;;;;;8.55;100.00;93731.19;4784961;29;20050;-63
2023/04/28 03:47:38;;;;;;;11.93;7.18;;;;;;;8.61;100.00;93721.34;4801143;29;20054;-62
2023/04/28 03:50:05;;;;;;;12.40;7.80;;;;;;;8.53;100.00;93725.34;4801447;29;20069;-62
2023/04/28 03:52:32;;;;;;;12.63;7.65;;;;;;;8.62;100.00;93719.41;4800856;29;20042;-62
2023/04/28 03:54:59;;;;;;;12.97;6.90;;;;;;;8.66;100.00;93726.38;4801239;29;20046;-63
2023/04/28 03:57:25;;;;;;;11.07;6.90;;;;;;;8.68;100.00;93715.81;4800923;29;20058;-62
2023/04/28 03:59:52;;;;;;;12.05;7.60;;;;;;;8.76;100.00;93714.53;4801156;29;20061;-65
2023/04/28 04:02:19;;;;;;;11.50;7.10;;;;;;;8.77;100.00;93718.06;4784629;29;20059;-63
2023/04/28 04:04:46;;;;;;;11.20;7.18;;;;;;;8.83;100.00;93721.13;4799732;29;20055;-62
2023/04/28 04:07:13;;;;;;;14.20;7.53;;;;;;;8.84;100.00;93709.00;4800938;29;20058;-63
2023/04/28 04:09:40;;;;;;;15.43;8.90;;;;;;;8.84;100.00;93711.75;4784709;29;20557;-62
2023/04/28 04:12:07;;;;;;;14.82;9.32;;;;;;;8.89;100.00;93716.75;4785171;29;20051;-63
2023/04/28 04:14:33;;;;;;;15.27;8.57;;;;;;;8.94;100.00;93700.66;4800607;29;20055;-63
2023/04/28 04:17:00;;;;;;;14.60;8.98;;;;;;;8.91;100.00;93692.47;4801315;29;20055;-62
2023/04/28 04:19:27;;;;;;;14.93;9.23;;;;;;;8.78;100.00;93701.22;4799716;29;20168;-63
2023/04/28 04:21:53;;;;;;;16.23;9.02;;;;;;;8.74;100.00;93692.28;4789375;29;20140;-63
2023/04/28 04:24:20;;;;;;;19.33;11.55;;;;;;;8.77;100.00;93696.97;4800162;29;20084;-63
2023/04/28 04:26:47;;;;;;;16.27;10.68;;;;;;;8.85;100.00;93691.38;4800380;29;20051;-62
2023/04/28 04:29:13;;;;;;;15.43;10.05;;;;;;;8.88;100.00;93693.31;4799803;29;20401;-65
2023/04/28 04:31:40;;;;;;;15.13;9.67;;;;;;;8.97;100.00;93696.31;4800422;29;20112;-62
2023/04/28 04:34:07;;;;;;;15.75;9.32;;;;;;;8.95;100.00;93696.75;4799876;29;20428;-62
2023/04/28 04:36:34;;;;;;;15.60;9.02;;;;;;;8.86;100.00;93695.69;4783412;29;20182;-65
2023/04/28 04:39:00;;;;;;;14.52;8.95;;;;;;;8.91;100.00;93695.22;4799917;29;20055;-63
2023/04/28 04:41:27;;;;;;;14.73;8.98;;;;;;;8.97;100.00;93696.31;4799764;29;20055;-63
2023/04/28 04:43:54;;;;;;;15.00;9.40;;;;;;;8.91;100.00;93693.25;4799860;29;20505;-62
2023/04/28 04:46:21;;;;;;;14.25;9.50;;;;;;;9.00;100.00;93690.78;4799824;29;20697;-62
2023/04/28 04:48:48;;;;;;;14.65;9.27;;;;;;;8.84;100.00;93692.59;4799711;29;20647;-65
2023/04/28 04:51:15;;;;;;;18.45;10.50;;;;;;;8.92;100.00;93694.03;4799498;29;20081;-63
2023/04/28 04:53:41;;;;;;;14.70;10.13;;;;;;;9.02;100.00;93700.56;4803018;29;20108;-63
2023/04/28 04:56:08;;;;;;;15.90;9.70;;;;;;;9.07;100.00;93706.34;4803217;29;20081;-64
2023/04/28 04:58:35;;;;;;;18.00;9.88;;;;;;;9.09;100.00;93703.97;4802065;29;20354;-62
2023/04/28 05:01:02;;;;;;;17.52;10.65;;;;;;;9.17;100.00;93702.69;4803124;29;20053;-63
2023/04/28 05:03:29;;;;;;;18.70;12.20;;;;;;;9.11;100.00;93700.81;4802535;29;20054;-62
2023/04/28 05:05:56;;;;;;;16.58;10.13;;;;;;;9.02;100.00;93698.59;4802920;29;20086;-64
2023/04/28 05:08:22;;;;;;;16.13;10.33;;;;;;;9.09;100.00;93708.69;4770672;29;20062;-65
2023/04/28 05:10:49;;;;;;;14.75;10.18;;;;;;;9.14;100.00;93710.97;4802786;29;20351;-62
2023/04/28 05:13:16;;;;;;;24.90;19.00;;;;;;;8.93;100.00;93707.31;4802624;29;20058;-62
2023/04/28 05:15:42;;;;;;;14.68;9.65;;;;;;;8.83;100.00;93707.44;4803128;29;20057;-62
2023/04/28 05:18:10;;;;;;;13.30;8.75;;;;;;;8.72;100.00;93719.28;4801843;29;20059;-64
2023/04/28 05:20:37;;;;;;;15.03;9.33;;;;;;;8.67;100.00;93717.00;4802623;29;20163;-64
2023/04/28 05:23:32;;;;;;;11.38;7.32;;;;;;;8.74;100.00;93719.66;4802433;29;20077;-63
2023/04/28 05:25:59;;;;;;;12.75;8.40;;;;;;;8.69;100.00;93713.84;4802699;29;20065;-61
2023/04/28 05:28:25;;;;;;;9.77;6.85;;;;;;;8.59;100.00;93716.31;4785835;29;20122;-62
2023/04/28 05:30:52;;;;;;;10.15;6.60;;;;;;;8.63;100.00;93716.25;4802448;29;20163;-63
2023/04/28 05:33:19;;;;;;;9.50;5.80;;;;;;;8.55;100.00;93715.56;4802200;29;20084;-63
2023/04/28 05:35:46;;;;;;;9.27;6.22;;;;;;;8.57;100.00;93715.94;4802748;29;20051;-65
2023/04/28 05:38:12;;;;;;;11.10;6.82;;;;;;;8.55;100.00;93718.31;4802107;29;20069;-63
2023/04/28 05:40:39;;;;;;;13.43;7.85;;;;;;;8.62;100.00;93714.72;4802700;29;20051;-60
2023/04/28 05:43:06;;;;;;;10.23;6.63;;;;;;;8.67;100.00;93722.47;4802389;29;20142;-60
2023/04/28 05:45:33;;;;;;;10.03;5.93;;;;;;;8.65;100.00;93719.34;4801911;29;20039;-63
2023/04/28 05:48:00;;;;;;;9.60;6.55;;;;;;;8.68;100.00;93723.25;4802229;29;20047;-63
2023/04/28 05:50:27;;;;;;;9.13;6.20;;;;;;;8.66;100.00;93711.94;4785696;29;20047;-61
2023/04/28 05:52:54;;;;;;;10.38;6.25;;;;;;;8.67;100.00;93718.94;4802170;29;20058;-60
2023/04/28 05:55:20;;;;;;;9.63;6.20;;;;;;;8.64;100.00;93722.53;4801324;29;20043;-60
2023/04/28 06:34:07;;;;;;;8.45;5.60;;;;;;;9.19;100.00;93715.97;4801216;29;20884;-64
2023/04/28 06:36:34;;;;;;;9.88;6.22;;;;;;;9.29;100.00;93720.53;4801009;29;20821;-64
2023/04/28 06:39:01;;;;;;;8.88;6.13;;;;;;;9.27;100.00;93727.59;4799252;29;20051;-64
2023/04/28 06:41:28;;;;;;;10.65;6.55;;;;;;;9.30;100.00;93724.84;4799487;29;20050;-63
2023/04/28 06:43:55;;;;;;;11.17;6.70;;;;;;;9.42;100.00;93717.22;4785603;29;20530;-61
2023/04/28 06:46:21;;;;;;;8.82;5.85;;;;;;;9.31;100.00;93717.38;4801052;29;20110;-60
2023/04/28 06:48:48;;;;;;;9.55;6.40;;;;;;;9.33;100.00;93715.78;4801753;29;20051;-64
2023/04/28 06:51:15;;;;;;;8.98;6.18;;;;;;;9.37;100.00;93711.03;4801667;29;20460;-63
2023/04/28 06:53:41;;;;;;;8.77;6.03;;;;;;;9.40;100.00;93714.91;4802070;29;20059;-61
2023/04/28 06:56:08;;;;;;;9.70;6.23;;;;;;;9.52;100.00;93714.34;4802233;29;20493;-60
2023/04/28 06:58:37;;;;;;;10.70;6.90;;;;;;;9.51;100.00;93703.81;4785821;29;20806;-60
2023/04/28 07:01:04;;;;;;;10.20;6.70;;;;;;;9.55;100.00;93699.81;4800428;29;20357;-61
2023/04/28 07:03:31;;;;;;;10.57;6.65;;;;;;;9.50;100.00;93697.56;4778051;29;20454;-61
2023/04/28 07:05:58;;;;;;;10.38;7.28;;;;;;;9.53;100.00;93704.94;4801300;29;20047;-64
2023/04/28 07:08:25;;;;;;;11.77;7.57;;;;;;;9.34;100.00;93714.59;4801126;29;20051;-61
2023/04/28 07:10:52;;;;;;;12.60;8.23;;;;;;;9.33;100.00;93707.56;4801792;29;20065;-65
2023/04/28 07:13:18;;;;;;;12.20;8.63;;;;;;;9.25;100.00;93710.81;4785095;29;20062;-60
2023/04/28 07:15:45;;;;;;;13.13;8.27;;;;;;;9.21;100.00;93719.06;4801272;29;20382;-61
2023/04/28 07:18:12;;;;;;;12.02;7.82;;;;;;;9.17;100.00;93704.66;4800953;29;20061;-61
2023/04/28 07:20:39;;;;;;;12.73;7.57;;;;;;;9.23;100.00;93716.69;4801209;29;20427;-65
2023/04/28 07:23:06;;;;;;;11.25;7.40;;;;;;;9.31;100.00;93706.44;4801112;29;20055;-61
2023/04/28 07:25:34;;;;;;;9.68;6.60;;;;;;;9.37;100.00;93702.03;4800765;29;20047;-61
2023/04/28 07:28:02;;;;;;;9.75;6.47;;;;;;;9.46;100.00;93696.84;4800966;29;20058;-60
2023/04/28 07:30:29;;;;;;;8.15;5.78;;;;;;;9.53;100.00;93707.66;4800935;29;20058;-61
2023/04/28 07:32:56;;;;;;;9.00;5.63;;;;;;;9.58;100.00;93695.50;4801078;29;20042;-66
2023/04/28 07:35:23;;;;;;;8.43;4.97;;;;;;;9.62;100.00;93715.38;4800447;29;20163;-62
2023/04/28 07:37:50;;;;;;;7.78;4.65;;;;;;;9.64;100.00;93720.44;4801060;29;20046;-65
2023/04/28 07:40:17;;;;;;;5.53;3.78;;;;;;;9.57;100.00;93724.06;4800550;29;20405;-61
2023/04/28 07:42:44;;;;;;;6.45;4.15;;;;;;;9.53;100.00;93740.53;4801288;29;20050;-62
2023/04/28 07:45:11;;;;;;;6.10;3.60;;;;;;;9.55;100.00;93735.44;4800277;29;20074;-64
2023/04/28 07:47:38;;;;;;;6.25;4.10;;;;;;;9.55;100.00;93724.47;4801264;29;20152;-60
2023/04/28 07:50:06;;;;;;;6.38;4.00;;;;;;;9.66;100.00;93724.31;4782792;29;20051;-63
2023/04/28 07:52:33;;;;;;;7.22;4.72;;;;;;;9.74;100.00;93727.75;4795251;29;20055;-62
2023/04/28 07:55:01;;;;;;;5.88;3.50;;;;;;;9.83;100.00;93732.69;4800567;29;20059;-61
2023/04/28 07:57:29;;;;;;;8.10;5.13;;;;;;;9.90;100.00;93722.41;4800316;29;20055;-61
2023/04/28 07:59:56;;;;;;;4.95;2.80;;;;;;;9.98;100.00;93723.84;4800871;29;20054;-60
2023/04/28 08:02:22;;;;;;;5.50;3.58;;;;;;;10.14;100.00;93725.94;4800559;29;20090;-63
2023/04/28 08:04:49;;;;;;;5.70;3.72;;;;;;;10.37;100.00;93738.88;4800971;29;20057;-60
2023/04/28 08:07:16;;;;;;;7.47;4.85;;;;;;;10.58;100.00;93736.94;4800483;29;20500;-60
2023/04/28 08:09:46;;;;;;;7.20;4.20;;;;;;;10.75;100.00;93735.84;4800885;29;20163;-63
2023/04/28 08:12:13;;;;;;;7.93;5.30;;;;;;;10.84;100.00;93732.53;4799996;29;20054;-61
2023/04/28 08:14:40;;;;;;;7.32;5.10;;;;;;;11.17;100.00;93730.72;4800885;29;20051;-61
2023/04/28 08:17:07;;;;;;;6.00;4.10;;;;;;;11.37;100.00;93718.94;4801030;29;20050;-61
2023/04/28 08:19:34;;;;;;;5.35;3.60;;;;;;;11.13;100.00;93721.00;4800099;29;20046;-63
2023/04/28 08:22:04;;;;;;;6.27;3.80;;;;;;;11.23;100.00;93728.25;4800769;29;20055;-61
2023/04/28 08:24:35;;;;;;;6.45;3.85;;;;;;;11.09;100.00;93723.06;4800545;29;20047;-60
2023/04/28 08:27:02;;;;;;;5.85;3.88;;;;;;;11.13;100.00;93727.25;4801752;29;20094;-65
2023/04/28 08:29:30;;;;;;;6.85;4.88;;;;;;;11.24;100.00;93737.25;4792668;29;20062;-60
2023/04/28 08:31:57;;;;;;;6.85;4.80;;;;;;;11.44;100.00;93731.72;4804615;29;20411;-63
2023/04/28 08:34:24;;;;;;;8.37;4.60;;;;;;;11.45;100.00;93741.50;4803994;29;20384;-61
2023/04/28 08:36:51;;;;;;;10.15;4.40;;;;;;;11.29;100.00;93740.28;4804528;29;20058;-64
2023/04/28 08:39:22;;;;;;;6.22;3.75;;;;;;;11.31;100.00;93731.63;4803728;29;20046;-60
2023/04/28 08:41:49;;;;;;;5.32;3.17;;;;;;;11.30;100.00;93724.56;4788772;29;20095;-63
2023/04/28 08:44:16;;;;;;;5.15;2.42;;;;;;;11.53;100.00;93738.19;4803628;29;20462;-62
2023/04/28 08:46:45;;;;;;;4.27;2.00;;;;;;;11.90;100.00;93730.72;4804150;29;20059;-60
2023/04/28 08:49:15;;;;;;;2.83;1.30;;;;;;;11.72;100.00;93730.31;4803317;29;20072;-58
2023/04/28 08:51:56;;;;;;;2.38;1.42;;;;;;;11.76;100.00;93733.78;4804107;29;20050;-59
2023/04/28 08:54:25;;;;;;;2.58;1.33;;;;;;;12.02;100.00;93726.50;4803243;29;20493;-64
2023/04/28 08:56:55;;;;;;;2.20;1.10;;;;;;;12.02;100.00;93728.50;4803926;29;20123;-60
2023/04/28 08:59:22;;;;;;;2.47;0.90;;;;;;;11.83;100.00;93730.06;4803041;29;20118;-59
2023/04/28 09:01:49;;;;;;;3.20;1.83;;;;;;;11.75;100.00;93737.72;4802597;29;20140;-63
2023/04/28 09:04:16;;;;;;;2.65;1.10;;;;;;;11.71;100.00;93735.06;4803716;29;20047;-60
2023/04/28 09:06:47;;;;;;;3.03;1.27;;;;;;;11.60;100.00;93742.75;4804362;29;20047;-60
2023/04/28 09:09:18;;;;;;;2.97;1.30;;;;;;;11.70;100.00;93741.75;4803847;29;20061;-60
2023/04/28 09:11:57;;;;;;;2.37;1.17;;;;;;;11.60;100.00;93749.03;4804285;29;20046;-60
2023/04/28 09:14:24;;;;;;;3.25;1.23;;;;;;;11.71;100.00;93759.00;4803321;29;20088;-60
2023/04/28 09:16:52;;;;;;;2.83;1.42;;;;;;;11.69;100.00;93761.41;4787988;29;20050;-59
2023/04/28 09:19:19;;;;;;;2.20;1.20;;;;;;;11.68;100.00;93768.13;4802954;29;20115;-63
2023/04/28 09:21:47;;;;;;;3.08;1.55;;;;;;;11.58;100.00;93776.16;4804087;29;20043;-60
2023/04/28 09:24:35;;;;;;;3.00;1.20;;;;;;;11.70;100.00;93774.72;4803415;29;20047;-60
2023/04/28 09:27:03;;;;;;;2.72;1.40;;;;;;;11.71;100.00;93772.75;4787954;29;20126;-60
2023/04/28 09:29:31;;;;;;;3.53;1.30;;;;;;;11.79;100.00;93769.44;4803190;29;20517;-61
2023/04/28 09:32:18;;;;;;;2.30;1.10;;;;;;;11.85;100.00;93779.91;4787617;29;20054;-64
2023/04/28 09:34:47;;;;;;;3.08;1.45;;;;;;;11.95;100.00;93781.66;4802848;29;20047;-62
2023/04/28 09:37:18;;;;;;;2.80;1.47;;;;;;;11.77;100.00;93784.78;4803326;29;20050;-60
2023/04/28 09:39:50;;;;;;;2.67;1.50;;;;;;;11.71;100.00;93792.00;4803072;29;20059;-62
2023/04/28 09:42:30;;;;;;;3.20;1.63;;;;;;;11.86;100.00;93789.72;4803304;29;20061;-64
2023/04/28 09:44:57;;;;;;;3.33;1.65;;;;;;;11.95;100.00;93778.91;4803816;29;20073;-65
2023/04/28 09:47:24;;;;;;;2.92;1.50;;;;;;;11.84;100.00;93756.38;4803507;29;20055;-62
2023/04/28 09:49:55;;;;;;;3.30;1.93;;;;;;;12.06;100.00;93751.97;4803654;29;20054;-59
2023/04/28 09:52:23;;;;;;;3.10;1.60;;;;;;;12.11;100.00;93739.66;4803031;29;20478;-63
2023/04/28 09:54:51;;;;;;;2.67;1.23;;;;;;;12.23;100.00;93743.69;4803733;29;20049;-60
2023/04/28 09:57:18;;;;;;;2.72;1.27;;;;;;;12.49;100.00;93739.88;4803166;29;20042;-60
2023/04/28 09:59:52;;;;;;;2.20;1.20;;;;;;;12.81;100.00;93732.78;4803265;29;20059;-61
2023/04/28 10:02:20;;;;;;;2.27;1.30;;;;;;;12.81;100.00;93734.78;4767463;30;20058;-60
2023/04/28 10:04:51;;;;;;;2.38;1.35;;;;;;;13.07;100.00;93735.63;4802827;29;20042;-60
2023/04/28 10:07:19;;;;;;;3.83;1.60;;;;;;;13.65;100.00;93737.56;4802847;29;20047;-60
2023/04/28 10:09:49;;;;;;;3.75;1.70;;;;;;;14.18;100.00;93730.38;4803184;29;20489;-60
2023/04/28 10:12:17;;;;;;;2.55;1.27;;;;;;;14.26;100.00;93744.72;4802832;29;20051;-60
2023/04/28 10:14:45;;;;;;;3.10;1.23;;;;;;;14.72;100.00;93742.44;4803460;29;20051;-59
2023/04/28 10:17:15;;;;;;;3.55;1.40;;;;;;;14.32;100.00;93748.44;4802402;29;20054;-59
2023/04/28 10:19:49;;;;;;;3.53;1.20;;;;;;;13.99;100.00;93745.19;4802718;29;20042;-63
2023/04/28 10:22:37;;;;;;;2.58;1.10;;;;;;;14.05;100.00;93751.69;4801989;29;20051;-66
2023/04/28 10:25:35;;;;;;;2.40;1.20;;;;;;;13.74;100.00;93751.44;4792173;29;20059;-60
2023/04/28 10:28:07;;;;;;;2.20;0.93;;;;;;;13.77;100.00;93754.09;4801929;29;20266;-60
2023/04/28 10:30:34;;;;;;;2.42;1.38;;;;;;;14.06;100.00;93750.47;4802321;29;20082;-60
2023/04/28 10:33:13;;;;;;;2.30;1.17;;;;;;;14.12;100.00;93754.22;4802889;29;20055;-62
2023/04/28 10:35:44;;;;;;;2.00;0.80;;;;;;;13.88;100.00;93747.50;4801882;29;20919;-60
2023/04/28 10:38:12;;;;;;;2.92;1.20;;;;;;;13.57;100.00;93751.53;4801830;29;20059;-60
2023/04/28 10:40:46;;;;;;;3.60;1.30;;;;;;;13.52;100.00;93743.81;4802355;29;20127;-63
2023/04/28 10:43:13;;;;;;;2.65;1.13;;;;;;;13.27;100.00;93750.03;4786753;29;20446;-61
2023/04/28 10:45:55;;;;;;;3.70;1.20;;;;;;;13.52;100.00;93746.59;4802189;29;20097;-59
2023/04/28 10:48:32;;;;;;;3.13;1.70;;;;;;;13.92;100.00;93743.44;4799484;29;20117;-60
2023/04/28 10:51:05;;;;;;;8.77;4.38;;;;;;;14.10;100.00;93733.78;4801836;29;20515;-60
2023/04/28 10:53:41;;;;;;;6.77;3.33;;;;;;;14.26;100.00;93736.44;4801464;29;20071;-60
2023/04/28 10:56:28;;;;;;;6.53;3.70;;;;;;;14.70;100.00;93742.09;4802270;29;20466;-63
2023/04/28 10:58:57;;;;;;;9.00;4.95;;;;;;;14.36;100.00;93737.31;4801595;29;20127;-60
2023/04/28 11:01:29;;;;;;;5.22;2.83;;;;;;;14.41;100.00;93735.97;4799843;29;20244;-63
2023/04/28 11:04:06;;;;;;;5.35;3.25;;;;;;;14.25;100.00;93745.16;4793098;29;20062;-63
2023/04/28 11:06:35;;;;;;;3.00;1.60;;;;;;;13.92;100.00;93729.63;4801622;29;20050;-63
2023/04/28 11:09:11;;;;;;;6.72;3.25;;;;;;;13.87;100.00;93735.69;4785858;29;20059;-60
2023/04/28 11:11:38;;;;;;;3.15;1.73;;;;;;;13.62;100.00;93732.91;4801029;29;20406;-59
2023/04/28 11:14:17;;;;;;;4.10;1.52;;;;;;;14.10;100.00;93737.31;4785995;29;20059;-60
2023/04/28 11:16:55;;;;;;;2.80;1.50;;;;;;;14.10;100.00;93747.59;4787821;29;20815;-60
2023/04/28 11:19:23;;;;;;;2.83;1.80;;;;;;;14.22;100.00;93746.81;4784164;29;20168;-59
2023/04/28 11:21:52;;;;;;;2.58;1.50;;;;;;;14.26;100.00;93730.91;4801516;29;20046;-60
2023/04/28 11:24:19;;;;;;;2.95;1.92;;;;;;;14.22;100.00;93738.53;4801636;29;20057;-60
2023/04/28 11:26:46;;;;;;;3.47;1.80;;;;;;;14.42;100.00;93732.75;4801754;29;20039;-60
2023/04/28 11:29:14;;;;;;;3.88;2.17;;;;;;;14.49;100.00;93737.28;4785587;29;20046;-61
2023/04/28 11:31:50;;;;;;;2.30;1.20;;;;;;;14.57;100.00;93731.09;4801867;29;20423;-60
2023/04/28 11:34:21;;;;;;;2.70;1.80;;;;;;;14.37;100.00;93739.63;4801636;29;20055;-60
2023/04/28 11:36:48;;;;;;;2.80;1.70;;;;;;;14.51;100.00;93746.66;4801696;29;20050;-63
2023/04/28 11:39:15;;;;;;;2.10;1.00;;;;;;;14.87;100.00;93747.47;4801212;29;20081;-60
2023/04/28 11:41:43;;;;;;;2.20;1.25;;;;;;;14.80;100.00;93740.19;4801852;29;20043;-65
2023/04/28 11:44:15;;;;;;;2.20;1.30;;;;;;;14.51;100.00;93735.63;4801598;29;20050;-64
2023/04/28 11:46:54;;;;;;;1.90;1.00;;;;;;;14.29;100.00;93740.31;4801909;29;20069;-64
2023/04/28 11:49:27;;;;;;;2.17;1.20;;;;;;;14.69;100.00;93743.34;4790677;29;20439;-60
2023/04/28 11:51:56;;;;;;;3.20;1.40;;;;;;;14.82;100.00;93735.00;4801502;29;20058;-61
2023/04/28 11:54:24;;;;;;;2.10;1.20;;;;;;;14.82;100.00;93739.75;4801458;29;20189;-62
2023/04/28 11:56:53;;;;;;;2.60;1.00;;;;;;;15.04;100.00;93735.03;4801509;29;20051;-60
2023/04/28 11:59:24;;;;;;;3.03;1.10;;;;;;;15.65;100.00;93720.97;4801481;29;20111;-62
2023/04/28 12:01:54;;;;;;;2.83;1.23;;;;;;;16.07;100.00;93728.88;4796096;29;20059;-60
2023/04/28 12:04:37;;;;;;;1.98;1.00;;;;;;;15.89;100.00;93724.81;4805305;29;20058;-60
2023/04/28 12:07:12;;;;;;;2.90;1.30;;;;;;;16.26;100.00;93722.19;4805140;29;20045;-62
2023/04/28 12:09:41;;;;;;;2.27;1.00;;;;;;;15.80;100.00;93724.78;4804217;29;20394;-60